createdAt,value
2019-04-25T00:01:46.609Z,82.05
2019-04-25T00:04:16.705Z,82.51
2019-04-25T00:06:45.163Z,82.51
2019-04-25T00:09:15.252Z,82.48
2019-04-25T00:11:46.546Z,82.48
2019-04-25T00:14:14.733Z,82.14
2019-04-25T00:16:45.228Z,82.14
2019-04-25T00:19:14.471Z,82.32
2019-04-25T00:22:01.879Z,82.32
2019-04-25T00:24:37.739Z,82.01
2019-04-25T00:27:06.147Z,81.73
2019-04-25T00:29:34.538Z,81.83
2019-04-25T00:32:03.131Z,81.91
2019-04-25T00:34:31.669Z,82.00
2019-04-25T00:37:02.525Z,82.72
2019-04-25T00:39:31.994Z,82.76
2019-04-25T00:42:02.158Z,82.76
2019-04-25T00:44:31.954Z,82.64
2019-04-25T00:47:02.279Z,82.64
2019-04-25T00:49:32.079Z,82.76
2019-04-25T00:52:01.986Z,83.18
2019-04-25T00:54:31.354Z,83.01
2019-04-25T00:56:59.827Z,83.01
2019-04-25T00:59:42.952Z,83.05
2019-04-25T01:02:16.318Z,82.98
2019-04-25T01:04:45.194Z,82.98
2019-04-25T01:07:13.833Z,82.88
2019-04-25T01:09:42.468Z,82.96
2019-04-25T01:12:11.652Z,83.01
2019-04-25T01:14:42.020Z,83.21
2019-04-25T01:17:11.670Z,83.21
2019-04-25T01:19:40.145Z,82.94
2019-04-25T01:22:08.812Z,82.76
2019-04-25T01:24:37.365Z,82.79
2019-04-25T01:27:07.200Z,82.49
2019-04-25T01:29:35.659Z,82.49
2019-04-25T01:32:05.397Z,82.55
2019-04-25T01:34:35.429Z,82.55
2019-04-25T01:37:05.879Z,82.14
2019-04-25T01:39:48.932Z,82.04
2019-04-25T01:42:19.312Z,81.89
2019-04-25T01:44:49.576Z,81.83
2019-04-25T01:47:18.592Z,81.52
2019-04-25T01:49:46.987Z,81.52
2019-04-25T01:52:15.679Z,81.56
2019-04-25T01:54:44.080Z,81.61
2019-04-25T01:57:14.270Z,81.57
2019-04-25T01:59:43.828Z,81.45
2019-04-25T02:02:14.134Z,81.33
2019-04-25T02:04:44.230Z,81.17
2019-04-25T02:07:13.515Z,81.09
2019-04-25T02:09:43.464Z,81.12
2019-04-25T02:12:15.474Z,80.92
2019-04-25T02:14:43.959Z,80.92
2019-04-25T02:17:14.161Z,80.91
2019-04-25T02:19:44.150Z,80.74
2019-04-25T02:22:12.589Z,81.32
2019-04-25T02:24:40.965Z,81.32
2019-04-25T02:27:09.511Z,81.04
2019-04-25T02:29:37.912Z,80.89
2019-04-25T02:32:08.904Z,80.95
2019-04-25T02:34:36.794Z,80.84
2019-04-25T02:37:09.414Z,80.80
2019-04-25T02:39:37.425Z,80.70
2019-04-25T02:42:08.194Z,80.83
2019-04-25T02:44:38.422Z,80.94
2019-04-25T02:47:11.246Z,80.88
2019-04-25T02:49:41.288Z,81.00
2019-04-25T02:52:17.667Z,80.94
2019-04-25T02:54:44.881Z,81.08
2019-04-25T02:57:14.643Z,80.87
2019-04-25T02:59:45.150Z,80.88
2019-04-25T03:02:15.398Z,80.91
2019-04-25T03:04:44.527Z,80.76
2019-04-25T03:07:16.865Z,80.60
2019-04-25T03:09:45.142Z,79.58
2019-04-25T03:12:26.861Z,79.67
2019-04-25T03:14:44.582Z,79.91
2019-04-25T03:17:14.335Z,79.94
2019-04-25T03:19:44.597Z,79.86
2019-04-25T03:22:15.257Z,79.68
2019-04-25T03:24:45.838Z,79.68
2019-04-25T03:27:14.299Z,79.68
2019-04-25T03:29:44.217Z,79.82
2019-04-25T03:32:16.344Z,79.94
2019-04-25T03:34:43.524Z,79.61
2019-04-25T03:37:13.636Z,79.56
2019-04-25T03:39:43.551Z,79.61
2019-04-25T03:42:13.978Z,79.61
2019-04-25T03:44:43.822Z,79.61
2019-04-25T03:47:13.511Z,79.70
2019-04-25T03:49:43.332Z,79.16
2019-04-25T03:52:13.766Z,79.25
2019-04-25T03:54:43.409Z,79.25
2019-04-25T03:57:14.462Z,79.25
2019-04-25T03:59:43.686Z,79.23
2019-04-25T04:02:13.494Z,79.53
2019-04-25T04:04:43.507Z,79.33
2019-04-25T04:07:12.765Z,78.90
2019-04-25T04:09:43.532Z,78.63
2019-04-25T04:12:12.508Z,78.48
2019-04-25T04:14:41.452Z,78.16
2019-04-25T04:17:11.467Z,78.16
2019-04-25T04:19:45.271Z,78.36
2019-04-25T04:22:21.032Z,78.63
2019-04-25T04:24:51.359Z,78.29
2019-04-25T04:27:19.766Z,78.08
2019-04-25T04:29:48.151Z,78.11
2019-04-25T04:32:17.379Z,78.03
2019-04-25T04:34:45.829Z,77.89
2019-04-25T04:37:15.796Z,77.73
2019-04-25T04:39:44.323Z,77.36
2019-04-25T04:42:14.015Z,76.94
2019-04-25T04:44:43.758Z,76.16
2019-04-25T04:47:14.065Z,76.16
2019-04-25T04:49:43.817Z,76.53
2019-04-25T04:52:14.352Z,76.09
2019-04-25T04:54:43.948Z,75.21
2019-04-25T04:57:25.743Z,75.21
2019-04-25T04:59:43.843Z,75.64
2019-04-25T05:02:15.841Z,75.15
2019-04-25T05:05:01.502Z,75.49
2019-04-25T05:07:40.665Z,75.47
2019-04-25T05:10:09.423Z,74.91
2019-04-25T05:12:37.808Z,74.85
2019-04-25T05:15:08.298Z,74.72
2019-04-25T05:17:36.708Z,74.72
2019-04-25T05:20:06.447Z,74.37
2019-04-25T05:22:34.831Z,73.84
2019-04-25T05:25:03.561Z,73.84
2019-04-25T05:27:42.653Z,74.46
2019-04-25T05:30:04.011Z,72.97
2019-04-25T05:32:34.241Z,73.55
2019-04-25T05:35:03.367Z,74.18
2019-04-25T05:37:33.399Z,74.18
2019-04-25T05:40:03.703Z,72.13
2019-04-25T05:42:52.071Z,72.13
2019-04-25T05:45:23.809Z,72.37
2019-04-25T05:47:54.087Z,72.44
2019-04-25T05:50:24.291Z,72.20
2019-04-25T05:52:54.168Z,72.54
2019-04-25T05:55:24.169Z,73.12
2019-04-25T05:57:56.550Z,72.43
2019-04-25T06:00:26.013Z,72.86
2019-04-25T06:02:55.267Z,73.06
2019-04-25T06:05:26.254Z,72.73
2019-04-25T06:07:54.366Z,72.73
2019-04-25T06:10:41.349Z,71.01
2019-04-25T06:13:28.677Z,68.20
2019-04-25T06:15:58.879Z,68.20
2019-04-25T06:18:28.874Z,69.36
2019-04-25T06:20:57.300Z,69.28
2019-04-25T06:23:44.339Z,67.44
2019-04-25T06:26:23.099Z,67.44
2019-04-25T06:28:53.789Z,67.38
2019-04-25T06:31:15.692Z,68.31
2019-04-25T06:33:44.115Z,67.39
2019-04-25T06:36:13.888Z,68.25
2019-04-25T06:38:44.272Z,68.15
2019-04-25T06:41:13.478Z,66.48
2019-04-25T06:43:44.215Z,65.00
2019-04-25T06:46:17.754Z,64.04
2019-04-25T06:48:47.843Z,63.65
2019-04-25T06:51:16.560Z,63.83
2019-04-25T06:53:44.974Z,63.84
2019-04-25T06:56:13.847Z,64.02
2019-04-25T06:58:43.362Z,64.11
2019-04-25T07:01:13.473Z,64.24
2019-04-25T07:03:42.244Z,63.68
2019-04-25T07:06:10.899Z,64.19
2019-04-25T07:08:39.335Z,63.50
2019-04-25T07:11:07.712Z,63.42
2019-04-25T07:13:38.800Z,62.83
2019-04-25T07:16:06.293Z,61.79
2019-04-25T07:18:37.230Z,61.70
2019-04-25T07:21:05.350Z,61.23
2019-04-25T07:23:34.571Z,60.28
2019-04-25T07:26:04.696Z,59.48
2019-04-25T07:28:37.964Z,58.66
2019-04-25T07:31:08.362Z,57.93
2019-04-25T07:33:41.105Z,60.79
2019-04-25T07:36:09.762Z,60.49
2019-04-25T07:38:38.169Z,58.21
2019-04-25T07:41:06.695Z,59.15
2019-04-25T07:43:35.437Z,58.69
2019-04-25T07:46:05.313Z,57.32
2019-04-25T07:48:36.631Z,56.82
2019-04-25T07:51:03.828Z,58.06
2019-04-25T07:53:33.918Z,57.59
2019-04-25T07:56:04.125Z,55.80
2019-04-25T07:58:49.548Z,55.77
2019-04-25T08:01:14.070Z,56.67
2019-04-25T08:03:43.829Z,55.81
2019-04-25T08:06:13.770Z,54.36
2019-04-25T08:08:43.605Z,57.01
2019-04-25T08:11:14.040Z,56.48
2019-04-25T08:13:50.279Z,55.24
2019-04-25T08:16:20.318Z,52.47
2019-04-25T08:18:50.112Z,54.64
2019-04-25T08:21:18.562Z,55.00
2019-04-25T08:23:48.003Z,56.65
2019-04-25T08:26:16.456Z,54.56
2019-04-25T08:28:55.012Z,53.77
2019-04-25T08:31:15.110Z,54.81
2019-04-25T08:33:46.441Z,55.62
2019-04-25T08:36:13.858Z,56.02
2019-04-25T08:38:44.413Z,53.88
2019-04-25T08:41:17.742Z,55.13
2019-04-25T08:43:46.146Z,55.23
2019-04-25T08:46:14.532Z,53.89
2019-04-25T08:49:02.389Z,53.56
2019-04-25T08:51:34.790Z,52.38
2019-04-25T08:54:20.150Z,51.87
2019-04-25T08:56:48.607Z,52.98
2019-04-25T08:59:40.647Z,53.27
2019-04-25T09:02:06.385Z,53.06
2019-04-25T09:04:40.112Z,54.15
2019-04-25T09:07:08.653Z,52.80
2019-04-25T09:09:37.868Z,52.70
2019-04-25T09:12:06.602Z,52.93
2019-04-25T09:14:36.475Z,52.14
2019-04-25T09:17:05.256Z,52.78
2019-04-25T09:19:36.229Z,53.70
2019-04-25T09:22:04.665Z,54.11
2019-04-25T09:24:33.503Z,54.15
2019-04-25T09:27:03.720Z,52.16
2019-04-25T09:29:34.237Z,52.24
2019-04-25T09:32:03.750Z,54.66
2019-04-25T09:34:33.584Z,52.46
2019-04-25T09:37:03.176Z,53.06
2019-04-25T09:39:36.881Z,50.56
2019-04-25T09:42:05.461Z,52.00
2019-04-25T09:44:39.305Z,50.99
2019-04-25T09:47:08.073Z,50.08
2019-04-25T09:49:39.069Z,49.54
2019-04-25T09:52:09.210Z,50.91
2019-04-25T09:54:56.746Z,48.48
2019-04-25T09:57:34.206Z,45.70
2019-04-25T10:00:03.939Z,46.97
2019-04-25T10:02:32.500Z,47.84
2019-04-25T10:05:00.947Z,46.97
2019-04-25T10:07:29.345Z,43.92
2019-04-25T10:09:57.810Z,44.92
2019-04-25T10:12:26.195Z,43.45
2019-04-25T10:15:04.439Z,44.03
2019-04-25T10:17:33.819Z,45.53
2019-04-25T10:20:02.305Z,43.82
2019-04-25T10:22:30.698Z,44.46
2019-04-25T10:25:00.792Z,43.82
2019-04-25T10:27:31.321Z,45.09
2019-04-25T10:29:59.703Z,44.92
2019-04-25T10:32:28.310Z,42.45
2019-04-25T10:34:56.719Z,43.09
2019-04-25T10:37:25.109Z,41.89
2019-04-25T10:39:55.528Z,41.65
2019-04-25T10:42:24.344Z,43.75
2019-04-25T10:44:56.632Z,39.78
2019-04-25T10:47:24.477Z,41.25
2019-04-25T10:49:53.684Z,40.10
2019-04-25T10:52:23.708Z,39.07
2019-04-25T10:54:52.634Z,39.59
2019-04-25T10:57:22.799Z,40.14
2019-04-25T11:00:00.362Z,39.40
2019-04-25T11:02:23.485Z,40.58
2019-04-25T11:04:59.655Z,40.28
2019-04-25T11:07:28.247Z,41.87
2019-04-25T11:09:56.761Z,40.07
2019-04-25T11:12:25.584Z,38.42
2019-04-25T11:14:59.447Z,39.43
2019-04-25T11:17:28.085Z,42.40
2019-04-25T11:19:56.479Z,39.46
2019-04-25T11:22:24.910Z,38.78
2019-04-25T11:24:53.310Z,40.07
2019-04-25T11:27:21.779Z,39.18
2019-04-25T11:29:50.746Z,39.36
2019-04-25T11:32:20.783Z,40.53
2019-04-25T11:34:49.269Z,38.47
2019-04-25T11:37:19.550Z,39.16
2019-04-25T11:40:04.773Z,34.79
2019-04-25T11:42:33.867Z,36.97
2019-04-25T11:45:04.479Z,35.69
2019-04-25T11:47:33.472Z,35.82
2019-04-25T11:50:01.937Z,35.53
2019-04-25T11:52:30.481Z,35.64
2019-04-25T11:54:58.884Z,37.77
2019-04-25T11:57:27.278Z,38.25
2019-04-25T11:59:55.865Z,36.47
2019-04-25T12:02:25.327Z,35.47
2019-04-25T12:04:54.966Z,37.27
2019-04-25T12:07:23.906Z,38.55
2019-04-25T12:09:54.104Z,35.77
2019-04-25T12:12:23.668Z,36.11
2019-04-25T12:14:54.040Z,37.39
2019-04-25T12:17:23.390Z,34.26
2019-04-25T12:19:53.617Z,34.71
2019-04-25T12:22:21.933Z,35.77
2019-04-25T12:24:50.548Z,36.48
2019-04-25T12:27:19.189Z,36.01
2019-04-25T12:29:47.588Z,34.96
2019-04-25T12:32:20.468Z,36.91
2019-04-25T12:34:49.500Z,36.09
2019-04-25T12:37:18.406Z,34.86
2019-04-25T12:39:47.107Z,35.08
2019-04-25T12:42:15.562Z,37.17
2019-04-25T12:44:47.362Z,38.51
2019-04-25T12:47:20.005Z,37.15
2019-04-25T12:49:48.687Z,35.79
2019-04-25T12:52:17.052Z,36.56
2019-04-25T12:54:45.457Z,36.40
2019-04-25T12:57:15.830Z,39.24
2019-04-25T12:59:45.172Z,36.84
2019-04-25T13:02:13.852Z,37.31
2019-04-25T13:04:44.000Z,36.16
2019-04-25T13:07:13.716Z,37.06
2019-04-25T13:09:42.185Z,38.95
2019-04-25T13:12:10.743Z,35.79
2019-04-25T13:14:39.157Z,37.64
2019-04-25T13:17:08.699Z,37.94
2019-04-25T13:19:37.643Z,36.36
2019-04-25T13:22:08.044Z,33.62
2019-04-25T13:24:36.743Z,33.64
2019-04-25T13:27:16.171Z,36.65
2019-04-25T13:29:58.815Z,35.65
2019-04-25T13:32:34.795Z,34.08
2019-04-25T13:35:04.898Z,33.67
2019-04-25T13:37:34.160Z,34.90
2019-04-25T13:40:03.372Z,34.22
2019-04-25T13:42:33.279Z,33.73
2019-04-25T13:45:03.131Z,33.87
2019-04-25T13:47:32.062Z,33.82
2019-04-25T13:50:00.398Z,35.22
2019-04-25T13:52:28.975Z,33.62
2019-04-25T13:54:57.664Z,35.91
2019-04-25T13:57:26.296Z,35.68
2019-04-25T13:59:54.849Z,36.81
2019-04-25T14:02:24.665Z,35.50
2019-04-25T14:04:53.835Z,35.33
2019-04-25T14:07:22.964Z,34.97
2019-04-25T14:09:53.244Z,35.88
2019-04-25T14:12:23.889Z,36.54
2019-04-25T14:14:53.955Z,37.20
2019-04-25T14:17:31.543Z,34.56
2019-04-25T14:20:04.281Z,34.72
2019-04-25T14:22:33.961Z,36.60
2019-04-25T14:25:03.954Z,36.76
2019-04-25T14:27:33.941Z,39.46
2019-04-25T14:30:03.881Z,34.62
2019-04-25T14:32:37.123Z,37.97
2019-04-25T14:35:09.703Z,37.08
2019-04-25T14:37:39.821Z,37.39
2019-04-25T14:40:10.462Z,36.88
2019-04-25T14:42:38.989Z,37.61
2019-04-25T14:45:09.814Z,36.43
2019-04-25T14:47:38.768Z,37.98
2019-04-25T14:50:14.889Z,38.89
2019-04-25T14:52:45.503Z,39.64
2019-04-25T14:55:25.119Z,38.62
2019-04-25T14:57:53.682Z,38.42
2019-04-25T15:00:34.006Z,37.96
2019-04-25T15:03:02.744Z,37.91
2019-04-25T15:05:31.173Z,37.22
2019-04-25T15:07:59.555Z,37.09
2019-04-25T15:10:28.654Z,37.55
2019-04-25T15:12:57.067Z,37.76
2019-04-25T15:15:26.609Z,37.05
2019-04-25T15:17:55.115Z,38.44
2019-04-25T15:20:26.174Z,37.49
2019-04-25T15:22:54.546Z,39.92
2019-04-25T15:25:23.260Z,40.50
2019-04-25T15:27:52.052Z,40.73
2019-04-25T15:30:30.879Z,37.31
2019-04-25T15:32:59.684Z,38.03
2019-04-25T15:35:42.275Z,39.33
2019-04-25T15:38:12.377Z,41.27
2019-04-25T15:40:48.659Z,42.43
2019-04-25T15:43:26.163Z,40.80
2019-04-25T15:46:03.917Z,39.25
2019-04-25T15:48:33.257Z,39.70
2019-04-25T15:51:01.686Z,41.75
2019-04-25T15:53:30.710Z,40.49
2019-04-25T15:55:59.060Z,40.09
2019-04-25T15:58:27.638Z,37.91
2019-04-25T16:00:57.581Z,38.57
2019-04-25T16:03:30.903Z,39.89
2019-04-25T16:05:59.297Z,38.89
2019-04-25T16:08:28.798Z,39.30
2019-04-25T16:10:59.197Z,40.56
2019-04-25T16:13:28.242Z,41.43
2019-04-25T16:15:56.761Z,40.78
2019-04-25T16:18:25.140Z,39.68
2019-04-25T16:20:53.917Z,39.36
2019-04-25T16:23:22.688Z,40.55
2019-04-25T16:25:51.146Z,41.54
2019-04-25T16:28:19.549Z,39.31
2019-04-25T16:30:48.187Z,39.46
2019-04-25T16:33:16.893Z,38.92
2019-04-25T16:35:45.343Z,38.75
2019-04-25T16:38:14.292Z,37.67
2019-04-25T16:40:42.694Z,36.58
2019-04-25T16:43:13.085Z,36.90
2019-04-25T16:45:41.519Z,36.27
2019-04-25T16:48:10.214Z,37.05
2019-04-25T16:50:38.849Z,37.18
2019-04-25T16:53:07.317Z,37.73
2019-04-25T16:55:36.628Z,37.43
2019-04-25T16:58:05.376Z,37.64
2019-04-25T17:00:50.889Z,37.97
2019-04-25T17:03:21.003Z,38.14
2019-04-25T17:05:49.950Z,37.96
2019-04-25T17:08:19.087Z,38.25
2019-04-25T17:10:47.639Z,38.45
2019-04-25T17:13:16.560Z,39.58
2019-04-25T17:16:03.245Z,40.01
2019-04-25T17:18:55.834Z,40.46
2019-04-25T17:21:24.617Z,40.83
2019-04-25T17:23:53.272Z,40.90
2019-04-25T17:26:27.770Z,41.57
2019-04-25T17:29:00.905Z,41.31
2019-04-25T17:31:34.069Z,41.79
2019-04-25T17:34:07.234Z,41.97
2019-04-25T17:36:43.461Z,42.02
2019-04-25T17:39:33.551Z,42.54
2019-04-25T17:42:04.190Z,42.77
2019-04-25T17:44:32.913Z,42.84
2019-04-25T17:47:06.397Z,43.73
2019-04-25T17:49:32.856Z,43.39
2019-04-25T17:52:01.286Z,43.50
2019-04-25T17:54:29.946Z,43.69
2019-04-25T17:56:58.778Z,43.85
2019-04-25T17:59:27.147Z,44.43
2019-04-25T18:01:55.661Z,44.47
2019-04-25T18:04:24.056Z,44.28
2019-04-25T18:06:52.657Z,44.28
2019-04-25T18:09:22.530Z,44.87
2019-04-25T18:11:50.915Z,45.12
2019-04-25T18:14:19.294Z,45.25
2019-04-25T18:16:49.171Z,45.84
2019-04-25T18:19:35.488Z,46.00
2019-04-25T18:22:09.172Z,46.00
2019-04-25T18:24:55.651Z,46.50
2019-04-25T18:27:29.379Z,47.02
2019-04-25T18:29:57.829Z,46.55
2019-04-25T18:32:27.954Z,47.25
2019-04-25T18:34:58.005Z,46.94
2019-04-25T18:37:43.196Z,46.88
2019-04-25T18:40:16.634Z,47.06
2019-04-25T18:42:49.987Z,46.77
2019-04-25T18:45:20.048Z,47.31
2019-04-25T18:47:48.463Z,47.94
2019-04-25T18:50:18.532Z,47.41
2019-04-25T18:52:48.576Z,47.97
2019-04-25T18:55:27.363Z,48.11
2019-04-25T18:58:09.247Z,48.03
2019-04-25T19:00:39.293Z,48.19
2019-04-25T19:03:26.203Z,49.26
2019-04-25T19:06:00.622Z,50.45
2019-04-25T19:08:29.021Z,51.03
2019-04-25T19:10:57.441Z,51.90
2019-04-25T19:13:28.007Z,53.42
2019-04-25T19:15:56.766Z,53.60
2019-04-25T19:18:25.161Z,54.28
2019-04-25T19:20:53.552Z,54.93
2019-04-25T19:23:22.287Z,55.41
2019-04-25T19:25:52.075Z,56.99
2019-04-25T19:28:20.536Z,58.02
2019-04-25T19:30:48.966Z,57.03
2019-04-25T19:33:17.805Z,56.82
2019-04-25T19:35:46.377Z,58.40
2019-04-25T19:38:14.887Z,59.05
2019-04-25T19:40:45.952Z,60.19
2019-04-25T19:43:19.168Z,60.88
2019-04-25T19:45:47.727Z,61.92
2019-04-25T19:48:16.191Z,63.67
2019-04-25T19:50:44.652Z,64.94
2019-04-25T19:53:13.267Z,65.70
2019-04-25T19:55:42.126Z,65.99
2019-04-25T19:58:11.936Z,66.27
2019-04-25T20:00:41.560Z,67.01
2019-04-25T20:03:12.283Z,67.55
2019-04-25T20:05:48.438Z,67.73
2019-04-25T20:08:24.499Z,67.62
2019-04-25T20:11:01.854Z,67.22
2019-04-25T20:13:30.511Z,67.38
2019-04-25T20:15:59.142Z,67.22
2019-04-25T20:18:28.006Z,67.31
2019-04-25T20:20:56.543Z,67.18
2019-04-25T20:23:24.940Z,66.89
2019-04-25T20:25:56.214Z,67.57
2019-04-25T20:28:23.535Z,67.37
2019-04-25T20:30:51.913Z,66.96
2019-04-25T20:33:20.326Z,67.08
2019-04-25T20:35:49.228Z,67.49
2019-04-25T20:38:17.619Z,67.66
2019-04-25T20:40:46.815Z,66.89
2019-04-25T20:43:15.983Z,66.47
2019-04-25T20:45:44.371Z,65.36
2019-04-25T20:48:13.095Z,65.44
2019-04-25T20:50:41.482Z,65.77
2019-04-25T20:53:09.863Z,66.45
2019-04-25T20:55:38.549Z,66.67
2019-04-25T20:58:06.954Z,66.85
2019-04-25T21:00:41.091Z,66.98
2019-04-25T21:03:09.546Z,67.27
2019-04-25T21:05:37.998Z,68.22
2019-04-25T21:08:06.804Z,68.42
2019-04-25T21:10:35.197Z,68.70
2019-04-25T21:13:05.236Z,69.45
2019-04-25T21:15:35.269Z,69.56
2019-04-25T21:18:17.633Z,69.94
2019-04-25T21:20:46.024Z,70.40
2019-04-25T21:23:14.706Z,70.50
2019-04-25T21:25:43.108Z,70.49
2019-04-25T21:28:11.499Z,70.49
2019-04-25T21:30:40.167Z,70.78
2019-04-25T21:33:08.564Z,70.66
2019-04-25T21:35:37.241Z,70.93
2019-04-25T21:38:05.623Z,70.80
2019-04-25T21:40:53.045Z,70.20
2019-04-25T21:43:23.876Z,70.17
2019-04-25T21:45:52.816Z,69.67
2019-04-25T21:48:22.585Z,69.67
2019-04-25T21:50:53.496Z,69.61
2019-04-25T21:53:21.966Z,69.68
2019-04-25T21:55:50.804Z,68.99
2019-04-25T21:58:19.374Z,69.22
2019-04-25T22:00:56.591Z,69.04
2019-04-25T22:03:26.516Z,69.37
2019-04-25T22:05:56.740Z,69.21
2019-04-25T22:08:25.618Z,69.49
2019-04-25T22:10:54.955Z,69.39
2019-04-25T22:13:24.375Z,69.87
2019-04-25T22:15:53.528Z,70.08
2019-04-25T22:18:22.516Z,70.65
2019-04-25T22:20:50.963Z,71.13
2019-04-25T22:23:19.624Z,70.99
2019-04-25T22:25:48.282Z,70.77
2019-04-25T22:28:17.253Z,70.80
2019-04-25T22:30:47.676Z,70.78
2019-04-25T22:33:20.851Z,70.78
2019-04-25T22:35:53.899Z,70.88
2019-04-25T22:38:22.790Z,70.75
2019-04-25T22:40:51.408Z,70.85
2019-04-25T22:43:20.946Z,71.74
2019-04-25T22:45:49.889Z,71.63
2019-04-25T22:48:20.157Z,71.30
2019-04-25T22:50:48.724Z,71.56
2019-04-25T22:53:22.763Z,71.84
2019-04-25T22:55:47.309Z,72.46
2019-04-25T22:58:15.720Z,72.56
2019-04-25T23:00:44.199Z,72.71
2019-04-25T23:03:14.227Z,72.54
2019-04-25T23:05:47.487Z,72.34
2019-04-25T23:08:16.217Z,72.46
2019-04-25T23:10:44.601Z,72.09
2019-04-25T23:13:13.370Z,72.34
2019-04-25T23:15:41.755Z,72.46
2019-04-25T23:18:11.400Z,72.52
2019-04-25T23:20:39.816Z,72.46
2019-04-25T23:23:09.617Z,72.25
2019-04-25T23:25:55.225Z,72.22
2019-04-25T23:28:25.603Z,72.31
2019-04-25T23:30:58.383Z,72.68
2019-04-25T23:33:26.763Z,73.03
2019-04-25T23:35:55.643Z,73.12
2019-04-25T23:38:24.312Z,73.27
2019-04-25T23:40:52.691Z,72.88
2019-04-25T23:43:21.334Z,73.13
2019-04-25T23:45:49.716Z,73.34
2019-04-25T23:48:18.530Z,73.66
2019-04-25T23:50:46.920Z,73.70
2019-04-25T23:53:15.296Z,73.77
2019-04-25T23:55:43.808Z,74.01
2019-04-25T23:58:12.184Z,73.85
